createdAt,value
2023-01-09T00:01:35.307Z,8.20
2023-01-09T00:04:05.567Z,9.20
2023-01-09T00:06:34.280Z,9.43
2023-01-09T00:09:03.414Z,14.93
2023-01-09T00:11:32.522Z,15.50
2023-01-09T00:14:01.372Z,12.10
2023-01-09T00:16:30.372Z,15.83
2023-01-09T00:19:01.137Z,12.30
2023-01-09T00:21:29.967Z,12.10
2023-01-09T00:23:58.505Z,13.60
2023-01-09T00:26:27.444Z,15.47
2023-01-09T00:28:56.277Z,14.50
2023-01-09T00:31:24.966Z,9.47
2023-01-09T00:34:00.153Z,12.20
2023-01-09T00:36:30.296Z,10.67
2023-01-09T00:38:58.983Z,8.17
2023-01-09T00:41:30.337Z,9.50
2023-01-09T00:44:00.689Z,10.30
2023-01-09T00:46:33.309Z,9.90
2023-01-09T00:49:02.563Z,9.93
2023-01-09T00:51:36.295Z,9.77
2023-01-09T00:54:05.796Z,10.10
2023-01-09T00:56:36.404Z,10.20
2023-01-09T00:59:05.469Z,18.30
2023-01-09T01:01:36.726Z,13.50
2023-01-09T01:04:25.969Z,10.90
2023-01-09T01:07:12.814Z,7.40
2023-01-09T01:09:41.653Z,9.33
2023-01-09T01:12:10.170Z,9.10
2023-01-09T01:14:40.164Z,9.23
2023-01-09T01:17:09.352Z,8.20
2023-01-09T01:19:38.390Z,8.67
2023-01-09T01:22:08.139Z,5.97
2023-01-09T01:24:36.496Z,9.27
2023-01-09T01:27:22.497Z,8.43
2023-01-09T01:30:03.611Z,9.10
2023-01-09T01:32:32.341Z,8.70
2023-01-09T01:35:00.894Z,7.73
2023-01-09T01:37:30.636Z,6.70
2023-01-09T01:39:59.222Z,10.80
2023-01-09T01:42:27.907Z,10.00
2023-01-09T01:45:00.920Z,9.03
2023-01-09T01:47:36.850Z,8.63
2023-01-09T01:50:09.518Z,7.53
2023-01-09T01:52:39.355Z,9.40
2023-01-09T01:55:10.258Z,9.60
2023-01-09T01:57:39.655Z,7.93
2023-01-09T02:00:09.331Z,9.90
2023-01-09T02:02:38.140Z,9.43
2023-01-09T02:05:08.014Z,7.87
2023-01-09T02:07:36.534Z,9.13
2023-01-09T02:10:07.088Z,8.07
2023-01-09T02:12:35.524Z,8.30
2023-01-09T02:15:06.548Z,8.90
2023-01-09T02:18:05.696Z,7.20
2023-01-09T02:20:40.997Z,9.03
2023-01-09T02:23:49.980Z,8.10
2023-01-09T02:27:03.510Z,4.40
2023-01-09T02:30:11.829Z,7.10
2023-01-09T02:32:51.443Z,6.23
2023-01-09T02:35:28.958Z,6.07
2023-01-09T02:38:04.282Z,5.93
2023-01-09T02:40:36.525Z,4.90
2023-01-09T02:43:05.764Z,5.20
2023-01-09T02:45:34.637Z,7.80
2023-01-09T02:48:04.982Z,8.37
2023-01-09T02:50:38.734Z,7.40
2023-01-09T02:53:20.228Z,6.77
2023-01-09T02:55:57.099Z,6.80
2023-01-09T02:58:35.670Z,7.80
2023-01-09T03:01:14.092Z,7.40
2023-01-09T03:03:49.251Z,14.10
2023-01-09T03:06:23.363Z,7.73
2023-01-09T03:08:54.781Z,7.87
2023-01-09T03:11:23.639Z,9.10
2023-01-09T03:13:55.244Z,7.60
2023-01-09T03:16:26.696Z,9.73
2023-01-09T03:18:58.007Z,21.40
2023-01-09T03:21:28.044Z,16.83
2023-01-09T03:23:57.763Z,15.77
2023-01-09T03:26:32.399Z,12.93
2023-01-09T03:31:46.431Z,5.70
2023-01-09T03:34:17.904Z,5.83
2023-01-09T03:36:46.554Z,7.30
2023-01-09T03:39:15.315Z,6.60
2023-01-09T03:41:44.080Z,10.00
2023-01-09T03:44:12.774Z,8.40
2023-01-09T03:46:41.811Z,7.33
2023-01-09T03:49:11.426Z,5.90
2023-01-09T03:51:41.883Z,8.53
2023-01-09T03:54:10.384Z,8.70
2023-01-09T03:56:38.818Z,7.10
2023-01-09T03:59:07.555Z,8.23
2023-01-09T04:01:36.470Z,11.90
2023-01-09T04:04:05.423Z,8.00
2023-01-09T04:06:34.121Z,8.37
2023-01-09T04:09:04.372Z,5.83
2023-01-09T04:11:33.350Z,11.90
2023-01-09T04:14:04.206Z,13.57
2023-01-09T04:16:32.873Z,14.60
2023-01-09T04:19:01.963Z,11.63
2023-01-09T04:21:30.453Z,10.47
2023-01-09T04:23:59.305Z,11.47
2023-01-09T04:26:33.466Z,15.63
2023-01-09T04:29:01.999Z,15.60
2023-01-09T04:31:30.629Z,23.23
2023-01-09T04:34:00.459Z,14.60
2023-01-09T04:36:29.295Z,11.23
2023-01-09T04:38:57.813Z,18.00
2023-01-09T04:41:40.256Z,15.97
2023-01-09T04:44:10.433Z,17.40
2023-01-09T04:46:39.270Z,16.03
2023-01-09T04:49:07.916Z,19.07
2023-01-09T04:51:36.471Z,17.10
2023-01-09T04:54:06.199Z,16.70
2023-01-09T04:56:34.676Z,20.50
2023-01-09T04:59:03.627Z,20.47
2023-01-09T05:01:34.046Z,16.67
2023-01-09T05:04:03.311Z,18.80
2023-01-09T05:06:32.677Z,22.00
2023-01-09T05:09:01.719Z,18.97
2023-01-09T05:11:30.283Z,18.67
2023-01-09T05:13:58.993Z,20.87
2023-01-09T05:16:30.192Z,16.77
2023-01-09T05:19:00.768Z,16.63
2023-01-09T05:21:29.650Z,13.37
2023-01-09T05:23:58.796Z,14.83
2023-01-09T05:26:27.837Z,13.07
2023-01-09T05:28:57.671Z,13.13
2023-01-09T05:31:28.023Z,11.53
2023-01-09T05:33:58.442Z,10.63
2023-01-09T05:36:29.515Z,10.83
2023-01-09T05:38:58.588Z,10.77
2023-01-09T05:41:27.096Z,10.20
2023-01-09T05:43:55.759Z,10.20
2023-01-09T05:46:24.593Z,9.43
2023-01-09T05:48:53.184Z,32.43
2023-01-09T05:51:21.773Z,15.37
2023-01-09T05:53:51.782Z,12.93
2023-01-09T05:56:20.554Z,14.70
2023-01-09T05:58:48.920Z,15.50
2023-01-09T06:01:17.822Z,12.00
2023-01-09T06:03:46.376Z,17.53
2023-01-09T06:06:15.076Z,13.60
2023-01-09T06:08:43.742Z,15.00
2023-01-09T06:11:30.672Z,15.23
2023-01-09T06:13:59.398Z,17.30
2023-01-09T06:16:28.408Z,13.80
2023-01-09T06:18:56.895Z,15.73
2023-01-09T06:21:26.489Z,7.77
2023-01-09T06:23:55.246Z,6.20
2023-01-09T06:26:25.704Z,10.73
2023-01-09T06:28:55.905Z,8.77
2023-01-09T06:31:24.806Z,10.17
2023-01-09T06:33:53.581Z,13.07
2023-01-09T06:36:22.787Z,12.50
2023-01-09T06:38:51.602Z,11.17
2023-01-09T06:41:20.172Z,12.37
2023-01-09T06:43:50.110Z,14.70
2023-01-09T06:46:18.585Z,10.60
2023-01-09T06:48:47.078Z,8.77
2023-01-09T06:51:17.350Z,5.33
2023-01-09T06:53:46.667Z,7.97
2023-01-09T06:56:17.865Z,7.17
2023-01-09T06:58:46.713Z,7.70
2023-01-09T07:01:33.847Z,11.50
2023-01-09T07:04:02.689Z,12.90
2023-01-09T07:06:31.572Z,9.83
2023-01-09T07:09:59.857Z,10.77
2023-01-09T07:12:28.690Z,9.43
2023-01-09T07:14:57.717Z,12.20
2023-01-09T07:17:27.729Z,11.90
2023-01-09T07:20:18.686Z,14.10
2023-01-09T07:22:48.244Z,14.47
2023-01-09T07:25:17.209Z,13.33
2023-01-09T07:27:46.240Z,13.70
2023-01-09T07:30:18.732Z,12.63
2023-01-09T07:32:48.906Z,15.53
2023-01-09T07:35:17.603Z,16.47
2023-01-09T07:37:49.556Z,13.73
2023-01-09T07:40:18.660Z,15.90
2023-01-09T07:42:47.145Z,13.33
2023-01-09T07:45:16.090Z,15.87
2023-01-09T07:47:45.243Z,14.87
2023-01-09T07:50:17.848Z,16.43
2023-01-09T07:52:46.696Z,15.10
2023-01-09T07:55:17.554Z,16.03
2023-01-09T07:57:50.103Z,18.20
2023-01-09T08:00:21.380Z,18.07
2023-01-09T08:02:53.410Z,20.87
2023-01-09T08:05:24.001Z,14.23
2023-01-09T08:07:54.913Z,16.13
2023-01-09T08:10:26.374Z,15.23
2023-01-09T08:12:54.896Z,12.97
2023-01-09T08:15:23.849Z,17.40
2023-01-09T08:17:52.465Z,17.83
2023-01-09T08:20:21.051Z,22.47
2023-01-09T08:22:52.305Z,22.60
2023-01-09T08:25:20.640Z,20.53
2023-01-09T08:27:49.608Z,18.07
2023-01-09T08:30:19.171Z,26.20
2023-01-09T08:32:51.168Z,26.17
2023-01-09T08:35:45.477Z,21.80
2023-01-09T08:38:16.611Z,22.40
2023-01-09T08:40:48.247Z,29.07
2023-01-09T08:43:35.052Z,18.43
2023-01-09T08:46:21.321Z,12.80
2023-01-09T08:48:49.879Z,8.67
2023-01-09T08:51:19.019Z,10.30
2023-01-09T08:53:48.897Z,6.77
2023-01-09T08:56:20.507Z,6.60
2023-01-09T08:58:49.239Z,8.03
2023-01-09T09:01:18.067Z,4.60
2023-01-09T09:03:46.971Z,4.97
2023-01-09T09:06:15.825Z,6.20
2023-01-09T09:11:31.244Z,3.53
2023-01-09T09:14:00.209Z,4.70
2023-01-09T09:16:29.351Z,4.00
2023-01-09T09:19:00.057Z,3.40
2023-01-09T09:21:31.611Z,3.30
2023-01-09T09:24:00.552Z,3.70
2023-01-09T09:26:30.608Z,5.43
2023-01-09T09:28:59.180Z,3.63
2023-01-09T09:31:27.725Z,3.90
2023-01-09T09:33:56.587Z,4.47
2023-01-09T09:36:33.371Z,4.10
2023-01-09T09:39:03.059Z,2.60
2023-01-09T09:42:30.609Z,2.40
2023-01-09T09:45:08.543Z,2.50
2023-01-09T09:47:53.941Z,3.50
2023-01-09T09:51:03.938Z,2.97
2023-01-09T09:53:35.278Z,2.50
2023-01-09T09:56:05.131Z,1.63
2023-01-09T09:58:39.052Z,1.60
2023-01-09T10:01:09.644Z,3.43
2023-01-09T10:03:41.459Z,1.93
2023-01-09T10:06:17.823Z,1.97
2023-01-09T10:08:50.459Z,1.97
2023-01-09T10:11:23.790Z,2.77
2023-01-09T10:14:13.074Z,3.90
2023-01-09T10:17:03.583Z,1.87
2023-01-09T10:19:44.904Z,1.47
2023-01-09T10:22:25.079Z,1.37
2023-01-09T10:25:08.126Z,1.40
2023-01-09T10:27:44.996Z,3.50
2023-01-09T10:30:28.384Z,3.30
2023-01-09T10:33:07.841Z,1.70
2023-01-09T10:35:54.543Z,3.00
2023-01-09T10:38:27.618Z,3.10
2023-01-09T10:41:01.733Z,5.90
2023-01-09T10:43:35.199Z,5.23
2023-01-09T10:46:07.364Z,2.00
2023-01-09T10:48:37.320Z,3.33
2023-01-09T10:51:15.885Z,3.50
2023-01-09T10:58:01.292Z,4.50
2023-01-09T11:00:30.390Z,3.07
2023-01-09T11:03:01.013Z,5.70
2023-01-09T11:05:32.827Z,2.33
2023-01-09T11:08:06.136Z,1.03
2023-01-09T11:10:49.409Z,1.67
2023-01-09T11:13:22.024Z,1.13
2023-01-09T11:16:13.188Z,1.83
2023-01-09T11:18:51.089Z,1.50
2023-01-09T11:21:32.114Z,18.77
2023-01-09T11:24:35.458Z,4.77
2023-01-09T11:27:24.741Z,1.20
2023-01-09T11:30:11.601Z,1.23
2023-01-09T11:32:42.424Z,0.90
2023-01-09T11:35:20.228Z,0.93
2023-01-09T11:37:50.578Z,1.10
2023-01-09T11:40:21.588Z,1.60
2023-01-09T11:43:17.278Z,2.30
2023-01-09T11:46:00.128Z,1.20
2023-01-09T11:48:34.040Z,1.17
2023-01-09T11:51:06.928Z,1.57
2023-01-09T11:53:52.550Z,0.93
2023-01-09T11:56:20.973Z,1.87
2023-01-09T11:58:49.751Z,1.80
2023-01-09T12:01:30.119Z,2.70
2023-01-09T12:04:18.555Z,2.13
2023-01-09T12:06:58.133Z,2.30
2023-01-09T12:09:32.932Z,2.60
2023-01-09T12:12:04.008Z,3.53
2023-01-09T12:14:46.538Z,2.13
2023-01-09T12:17:36.377Z,2.10
2023-01-09T12:20:26.826Z,3.10
2023-01-09T12:23:02.506Z,1.97
2023-01-09T12:25:38.102Z,3.17
2023-01-09T12:28:32.430Z,5.67
2023-01-09T12:31:10.472Z,6.77
2023-01-09T12:33:44.531Z,8.00
2023-01-09T12:36:19.695Z,15.90
2023-01-09T12:39:01.588Z,3.07
2023-01-09T12:41:45.003Z,4.90
2023-01-09T12:44:49.716Z,9.87
2023-01-09T12:47:38.242Z,5.20
2023-01-09T12:50:18.762Z,2.77
2023-01-09T12:52:48.797Z,3.50
2023-01-09T12:55:22.029Z,1.60
2023-01-09T12:57:53.262Z,2.97
2023-01-09T13:00:25.150Z,1.40
2023-01-09T13:03:10.962Z,2.60
2023-01-09T13:05:45.147Z,2.30
2023-01-09T13:08:17.475Z,4.70
2023-01-09T13:10:49.846Z,3.00
2023-01-09T13:13:21.990Z,2.27
2023-01-09T13:15:55.127Z,1.53
2023-01-09T13:18:30.431Z,3.70
2023-01-09T13:21:00.184Z,2.47
2023-01-09T13:23:35.071Z,1.70
2023-01-09T13:26:09.740Z,2.07
2023-01-09T13:28:43.965Z,2.40
2023-01-09T13:31:43.377Z,1.43
2023-01-09T13:34:22.049Z,1.50
2023-01-09T13:36:55.390Z,1.77
2023-01-09T13:39:26.523Z,5.60
2023-01-09T13:42:16.929Z,2.23
2023-01-09T13:44:46.321Z,4.17
2023-01-09T13:47:20.915Z,3.10
2023-01-09T13:50:21.280Z,3.03
2023-01-09T13:52:50.752Z,2.33
2023-01-09T13:55:36.000Z,7.93
2023-01-09T13:58:24.185Z,3.03
2023-01-09T14:01:01.884Z,2.50
2023-01-09T14:04:14.598Z,1.67
2023-01-09T14:07:26.526Z,3.30
2023-01-09T14:10:01.853Z,1.33
2023-01-09T14:12:32.228Z,1.50
2023-01-09T14:15:03.432Z,2.13
2023-01-09T14:17:37.073Z,2.93
2023-01-09T14:20:13.726Z,2.97
2023-01-09T14:22:55.785Z,1.40
2023-01-09T14:25:28.849Z,2.00
2023-01-09T14:28:21.755Z,2.30
2023-01-09T14:31:13.857Z,1.20
2023-01-09T14:33:42.530Z,0.80
2023-01-09T14:36:15.239Z,3.63
2023-01-09T14:38:48.148Z,1.47
2023-01-09T14:41:43.624Z,0.90
2023-01-09T14:44:25.895Z,1.10
2023-01-09T14:46:57.391Z,0.80
2023-01-09T14:49:33.372Z,1.13
2023-01-09T14:52:04.809Z,0.83
2023-01-09T14:54:37.634Z,3.20
2023-01-09T14:57:24.868Z,1.20
2023-01-09T14:59:58.232Z,2.10
2023-01-09T15:02:30.315Z,1.80
2023-01-09T15:05:02.755Z,1.60
2023-01-09T15:07:34.964Z,1.13
2023-01-09T15:10:05.063Z,1.37
2023-01-09T15:12:35.808Z,1.63
2023-01-09T15:15:06.100Z,0.97
2023-01-09T15:17:38.432Z,1.33
2023-01-09T15:20:09.166Z,5.30
2023-01-09T15:22:38.630Z,2.90
2023-01-09T15:25:38.965Z,1.73
2023-01-09T15:28:32.430Z,1.53
2023-01-09T15:31:07.314Z,4.47
2023-01-09T15:33:40.304Z,1.40
2023-01-09T15:36:14.035Z,1.20
2023-01-09T15:38:43.121Z,1.93
2023-01-09T15:41:38.904Z,1.37
2023-01-09T15:44:14.680Z,1.60
2023-01-09T15:46:44.228Z,1.17
2023-01-09T15:49:15.022Z,1.27
2023-01-09T15:51:45.510Z,1.30
2023-01-09T15:54:21.801Z,2.00
2023-01-09T15:56:53.163Z,7.50
2023-01-09T15:59:29.760Z,20.93
2023-01-09T16:02:14.530Z,9.43
2023-01-09T16:04:47.053Z,5.47
2023-01-09T16:07:17.575Z,4.70
2023-01-09T16:09:47.846Z,1.97
2023-01-09T16:12:20.384Z,2.37
2023-01-09T16:14:53.129Z,1.03
2023-01-09T16:17:26.642Z,0.80
2023-01-09T16:19:58.239Z,3.37
2023-01-09T16:22:27.990Z,0.70
2023-01-09T16:24:58.870Z,2.10
2023-01-09T16:27:28.983Z,1.83
2023-01-09T16:29:59.704Z,2.97
2023-01-09T16:32:30.877Z,2.03
2023-01-09T16:35:05.421Z,3.20
2023-01-09T16:37:37.578Z,2.20
2023-01-09T16:40:27.807Z,2.23
2023-01-09T16:43:07.583Z,3.43
2023-01-09T16:45:44.956Z,2.10
2023-01-09T16:48:17.864Z,4.20
2023-01-09T16:50:47.862Z,5.40
2023-01-09T16:53:18.486Z,1.40
2023-01-09T16:55:47.811Z,6.00
2023-01-09T16:58:21.946Z,2.70
2023-01-09T17:00:53.362Z,1.70
2023-01-09T17:03:22.577Z,2.40
2023-01-09T17:05:57.687Z,2.10
2023-01-09T17:08:29.934Z,2.77
2023-01-09T17:11:01.007Z,1.67
2023-01-09T17:13:29.849Z,2.57
2023-01-09T17:15:59.453Z,4.93
2023-01-09T17:18:29.807Z,4.30
2023-01-09T17:21:00.284Z,7.33
2023-01-09T17:23:29.067Z,4.80
2023-01-09T17:26:28.775Z,2.40
2023-01-09T17:28:57.294Z,4.40
2023-01-09T17:31:26.086Z,2.67
2023-01-09T17:33:55.017Z,3.63
2023-01-09T17:36:54.022Z,2.20
2023-01-09T17:39:23.209Z,2.57
2023-01-09T17:41:52.471Z,2.63
2023-01-09T17:44:20.984Z,1.70
2023-01-09T17:47:38.882Z,1.47
2023-01-09T17:50:08.963Z,1.87
2023-01-09T17:52:38.751Z,8.43
2023-01-09T17:55:08.469Z,3.40
2023-01-09T17:57:37.087Z,2.23
2023-01-09T18:00:07.099Z,9.07
2023-01-09T18:02:36.122Z,7.90
2023-01-09T18:05:30.541Z,4.27
2023-01-09T18:08:03.309Z,4.67
2023-01-09T18:10:32.227Z,9.20
2023-01-09T18:13:00.913Z,4.50
2023-01-09T18:15:29.681Z,3.30
2023-01-09T18:17:58.254Z,2.80
2023-01-09T18:20:26.932Z,1.80
2023-01-09T18:22:57.830Z,4.27
2023-01-09T18:25:28.127Z,3.50
2023-01-09T18:28:00.686Z,2.20
2023-01-09T18:30:29.383Z,2.17
2023-01-09T18:33:00.737Z,1.60
2023-01-09T18:35:29.992Z,1.70
2023-01-09T18:38:01.018Z,3.27
2023-01-09T18:40:33.342Z,5.53
2023-01-09T18:43:05.134Z,1.60
2023-01-09T18:45:34.640Z,6.03
2023-01-09T18:48:06.587Z,2.13
2023-01-09T18:50:44.832Z,1.97
2023-01-09T18:53:16.628Z,5.83
2023-01-09T18:55:46.955Z,3.93
2023-01-09T18:58:17.924Z,2.67
2023-01-09T19:00:46.795Z,5.00
2023-01-09T19:03:17.995Z,11.97
2023-01-09T19:05:46.651Z,4.17
2023-01-09T19:08:17.493Z,1.43
2023-01-09T19:10:52.439Z,2.13
2023-01-09T19:13:21.488Z,3.10
2023-01-09T19:15:54.533Z,4.60
2023-01-09T19:18:23.837Z,1.70
2023-01-09T19:20:53.049Z,2.73
2023-01-09T19:23:27.368Z,1.03
2023-01-09T19:25:57.909Z,2.37
2023-01-09T19:28:26.717Z,2.50
2023-01-09T19:30:58.923Z,2.60
2023-01-09T19:33:27.579Z,2.40
2023-01-09T19:36:06.556Z,4.47
2023-01-09T19:38:35.219Z,1.90
2023-01-09T19:41:13.275Z,1.70
2023-01-09T19:43:41.814Z,5.23
2023-01-09T19:46:11.972Z,3.23
2023-01-09T19:48:42.655Z,2.80
2023-01-09T19:51:12.108Z,1.37
2023-01-09T19:53:41.423Z,4.30
2023-01-09T19:56:19.178Z,1.60
2023-01-09T19:58:52.075Z,3.27
2023-01-09T20:01:22.853Z,1.27
2023-01-09T20:03:52.028Z,4.30
2023-01-09T20:06:24.497Z,2.80
2023-01-09T20:08:54.755Z,4.93
2023-01-09T20:11:26.784Z,2.30
2023-01-09T20:13:56.937Z,3.13
2023-01-09T20:16:30.631Z,1.57
2023-01-09T20:19:08.013Z,2.03
2023-01-09T20:21:37.548Z,4.07
2023-01-09T20:24:09.511Z,3.53
2023-01-09T20:26:48.020Z,3.93
2023-01-09T20:29:18.305Z,1.60
2023-01-09T20:31:47.183Z,1.73
2023-01-09T20:34:16.407Z,7.80
2023-01-09T20:36:45.846Z,4.03
2023-01-09T20:39:14.803Z,4.13
2023-01-09T20:41:49.910Z,5.03
2023-01-09T20:44:18.634Z,8.30
2023-01-09T20:46:48.428Z,1.93
2023-01-09T20:49:18.729Z,1.73
2023-01-09T20:51:49.667Z,1.50
2023-01-09T20:54:21.600Z,3.43
2023-01-09T20:56:52.296Z,1.67
2023-01-09T20:59:22.541Z,1.20
2023-01-09T21:01:51.965Z,1.33
2023-01-09T21:04:20.988Z,4.17
2023-01-09T21:06:50.317Z,1.30
2023-01-09T21:09:20.503Z,2.40
2023-01-09T21:11:49.436Z,5.13
2023-01-09T21:14:20.464Z,1.63
2023-01-09T21:16:54.713Z,3.40
2023-01-09T21:19:24.807Z,3.63
2023-01-09T21:21:53.833Z,2.13
2023-01-09T21:24:24.326Z,1.50
2023-01-09T21:26:52.893Z,2.10
2023-01-09T21:29:23.022Z,5.60
2023-01-09T21:31:51.901Z,4.37
2023-01-09T21:34:21.377Z,2.73
2023-01-09T21:36:54.058Z,2.03
2023-01-09T21:39:24.705Z,3.80
2023-01-09T21:42:10.839Z,3.10
2023-01-09T21:44:58.681Z,1.93
2023-01-09T21:47:27.445Z,6.03
2023-01-09T21:49:59.208Z,2.20
2023-01-09T21:52:28.059Z,2.27
2023-01-09T21:54:57.947Z,5.70
2023-01-09T21:57:29.452Z,5.17
2023-01-09T22:00:01.152Z,4.43
2023-01-09T22:02:30.003Z,2.07
2023-01-09T22:05:01.476Z,7.07
2023-01-09T22:07:30.123Z,3.40
2023-01-09T22:09:59.109Z,1.83
2023-01-09T22:12:27.614Z,2.10
2023-01-09T22:14:56.234Z,3.50
2023-01-09T22:17:26.335Z,3.67
2023-01-09T22:19:55.045Z,4.17
2023-01-09T22:22:53.757Z,3.03
2023-01-09T22:25:23.887Z,4.97
2023-01-09T22:27:52.718Z,5.20
2023-01-09T22:30:21.698Z,2.00
2023-01-09T22:32:51.912Z,3.90
2023-01-09T22:35:20.696Z,2.50
2023-01-09T22:37:49.533Z,2.90
2023-01-09T22:40:19.421Z,6.17
2023-01-09T22:42:48.229Z,6.73
2023-01-09T22:45:16.947Z,4.00
2023-01-09T22:47:45.952Z,5.00
2023-01-09T22:50:16.407Z,3.73
2023-01-09T22:52:45.297Z,2.27
2023-01-09T22:55:14.248Z,4.70
2023-01-09T22:57:43.560Z,2.00
2023-01-09T23:00:13.753Z,2.33
2023-01-09T23:02:42.417Z,3.27
2023-01-09T23:05:11.419Z,2.13
2023-01-09T23:07:46.401Z,2.40
2023-01-09T23:10:16.815Z,1.47
2023-01-09T23:12:48.720Z,2.00
2023-01-09T23:15:17.422Z,2.50
2023-01-09T23:17:46.550Z,2.70
2023-01-09T23:20:15.232Z,1.30
2023-01-09T23:22:43.866Z,1.90
2023-01-09T23:25:15.917Z,2.33
2023-01-09T23:27:45.462Z,2.20
2023-01-09T23:30:14.667Z,4.17
2023-01-09T23:32:44.415Z,8.33
2023-01-09T23:35:13.374Z,1.50
2023-01-09T23:37:41.792Z,1.23
2023-01-09T23:40:12.834Z,2.13
2023-01-09T23:43:00.500Z,2.17
2023-01-09T23:45:29.163Z,1.80
2023-01-09T23:47:57.940Z,1.63
2023-01-09T23:50:26.411Z,1.60
2023-01-09T23:52:55.080Z,1.67
2023-01-09T23:55:23.792Z,2.70
2023-01-09T23:57:55.919Z,1.50
